sensor_id;sensor_type;location;lat;lon;timestamp;temperature;humidity
20158;DHT22;10239;56.820;24.416;2023-03-01T00:01:10;2.90;99.90
20158;DHT22;10239;56.820;24.416;2023-03-01T02:31:38;2.30;99.90
20158;DHT22;10239;56.820;24.416;2023-03-01T03:07:10;2.30;99.90
20158;DHT22;10239;56.820;24.416;2023-03-01T03:59:37;2.60;99.90
20158;DHT22;10239;56.820;24.416;2023-03-01T04:02:06;2.70;99.90
20158;DHT22;10239;56.820;24.416;2023-03-01T04:05:43;2.70;99.90
20158;DHT22;10239;56.820;24.416;2023-03-01T04:12:41;2.80;99.90
20158;DHT22;10239;56.820;24.416;2023-03-01T04:15:22;2.70;99.90
20158;DHT22;10239;56.820;24.416;2023-03-01T04:17:57;2.80;99.90
20158;DHT22;10239;56.820;24.416;2023-03-01T04:20:30;2.90;99.90
20158;DHT22;10239;56.820;24.416;2023-03-01T04:23:18;2.90;99.90
20158;DHT22;10239;56.820;24.416;2023-03-01T04:25:52;3.00;99.90
20158;DHT22;10239;56.820;24.416;2023-03-01T04:28:35;3.00;99.90
20158;DHT22;10239;56.820;24.416;2023-03-01T04:31:15;2.90;99.90
20158;DHT22;10239;56.820;24.416;2023-03-01T04:34:40;2.90;99.90
20158;DHT22;10239;56.820;24.416;2023-03-01T04:55:14;3.20;99.90
20158;DHT22;10239;56.820;24.416;2023-03-01T05:02:04;3.20;99.90
20158;DHT22;10239;56.820;24.416;2023-03-01T05:19:21;3.20;99.90
20158;DHT22;10239;56.820;24.416;2023-03-01T05:21:50;3.30;99.90
20158;DHT22;10239;56.820;24.416;2023-03-01T05:24:35;3.40;99.90
20158;DHT22;10239;56.820;24.416;2023-03-01T05:27:03;3.40;99.90
20158;DHT22;10239;56.820;24.416;2023-03-01T05:29:35;3.40;99.90
20158;DHT22;10239;56.820;24.416;2023-03-01T05:32:05;3.50;99.90
20158;DHT22;10239;56.820;24.416;2023-03-01T05:34:34;3.40;99.90
20158;DHT22;10239;56.820;24.416;2023-03-01T05:37:03;3.40;99.90
20158;DHT22;10239;56.820;24.416;2023-03-01T05:39:30;3.40;99.90
20158;DHT22;10239;56.820;24.416;2023-03-01T05:42:00;3.40;99.90
20158;DHT22;10239;56.820;24.416;2023-03-01T05:44:28;3.40;99.90
20158;DHT22;10239;56.820;24.416;2023-03-01T05:46:56;3.50;99.90
20158;DHT22;10239;56.820;24.416;2023-03-01T05:49:24;3.60;99.90
20158;DHT22;10239;56.820;24.416;2023-03-01T05:51:53;3.60;99.90
20158;DHT22;10239;56.820;24.416;2023-03-01T05:54:21;3.60;99.90
20158;DHT22;10239;56.820;24.416;2023-03-01T05:56:49;3.70;99.90
20158;DHT22;10239;56.820;24.416;2023-03-01T05:59:17;3.80;99.90
20158;DHT22;10239;56.820;24.416;2023-03-01T06:01:45;3.90;99.90
20158;DHT22;10239;56.820;24.416;2023-03-01T06:04:12;3.90;99.90
20158;DHT22;10239;56.820;24.416;2023-03-01T06:06:40;4.00;99.90
20158;DHT22;10239;56.820;24.416;2023-03-01T06:09:16;4.10;99.90
20158;DHT22;10239;56.820;24.416;2023-03-01T06:11:57;4.10;99.90
20158;DHT22;10239;56.820;24.416;2023-03-01T06:15:05;4.20;99.90
20158;DHT22;10239;56.820;24.416;2023-03-01T06:17:55;4.10;99.90
20158;DHT22;10239;56.820;24.416;2023-03-01T06:20:41;4.10;99.90
20158;DHT22;10239;56.820;24.416;2023-03-01T06:23:14;4.10;99.90
20158;DHT22;10239;56.820;24.416;2023-03-01T06:25:49;4.20;99.90
20158;DHT22;10239;56.820;24.416;2023-03-01T06:28:24;4.40;99.90
20158;DHT22;10239;56.820;24.416;2023-03-01T06:31:00;4.50;99.90
20158;DHT22;10239;56.820;24.416;2023-03-01T06:34:00;4.70;99.90
20158;DHT22;10239;56.820;24.416;2023-03-01T06:36:49;5.10;99.90
20158;DHT22;10239;56.820;24.416;2023-03-01T06:39:27;5.30;99.90
20158;DHT22;10239;56.820;24.416;2023-03-01T06:42:00;5.60;99.90
20158;DHT22;10239;56.820;24.416;2023-03-01T06:44:32;5.50;99.90
20158;DHT22;10239;56.820;24.416;2023-03-01T06:47:05;6.00;99.90
20158;DHT22;10239;56.820;24.416;2023-03-01T06:49:50;6.70;99.90
20158;DHT22;10239;56.820;24.416;2023-03-01T06:52:21;7.80;99.90
20158;DHT22;10239;56.820;24.416;2023-03-01T06:54:59;8.80;99.90
20158;DHT22;10239;56.820;24.416;2023-03-01T07:05:08;7.80;99.90
20158;DHT22;10239;56.820;24.416;2023-03-01T07:22:31;7.20;99.90
20158;DHT22;10239;56.820;24.416;2023-03-01T07:25:05;8.10;99.90
20158;DHT22;10239;56.820;24.416;2023-03-01T07:30:50;9.10;99.90
20158;DHT22;10239;56.820;24.416;2023-03-01T07:33:38;8.90;99.90
20158;DHT22;10239;56.820;24.416;2023-03-01T07:36:10;8.30;99.90
20158;DHT22;10239;56.820;24.416;2023-03-01T07:39:00;8.10;99.90
20158;DHT22;10239;56.820;24.416;2023-03-01T07:41:32;7.70;99.90
20158;DHT22;10239;56.820;24.416;2023-03-01T07:44:07;7.40;99.90
20158;DHT22;10239;56.820;24.416;2023-03-01T07:46:39;7.40;99.90
20158;DHT22;10239;56.820;24.416;2023-03-01T07:49:10;7.40;99.90
20158;DHT22;10239;56.820;24.416;2023-03-01T07:51:45;7.80;99.90
20158;DHT22;10239;56.820;24.416;2023-03-01T07:54:16;7.90;99.90
20158;DHT22;10239;56.820;24.416;2023-03-01T07:57:07;9.20;99.90
20158;DHT22;10239;56.820;24.416;2023-03-01T07:59:41;9.50;99.90
20158;DHT22;10239;56.820;24.416;2023-03-01T08:02:17;9.90;99.90
20158;DHT22;10239;56.820;24.416;2023-03-01T08:04:45;9.80;99.90
20158;DHT22;10239;56.820;24.416;2023-03-01T08:07:19;10.00;99.90
20158;DHT22;10239;56.820;24.416;2023-03-01T08:09:49;10.20;99.90
20158;DHT22;10239;56.820;24.416;2023-03-01T08:12:17;10.10;99.90
20158;DHT22;10239;56.820;24.416;2023-03-01T08:14:54;10.10;99.90
20158;DHT22;10239;56.820;24.416;2023-03-01T08:17:30;10.30;99.90
20158;DHT22;10239;56.820;24.416;2023-03-01T08:20:03;10.60;99.90
20158;DHT22;10239;56.820;24.416;2023-03-01T08:22:53;12.00;99.90
20158;DHT22;10239;56.820;24.416;2023-03-01T08:26:14;12.70;99.90
20158;DHT22;10239;56.820;24.416;2023-03-01T08:29:18;12.40;99.90
20158;DHT22;10239;56.820;24.416;2023-03-01T08:35:46;13.10;99.90
20158;DHT22;10239;56.820;24.416;2023-03-01T08:38:59;13.90;99.90
20158;DHT22;10239;56.820;24.416;2023-03-01T08:41:50;14.10;99.90
20158;DHT22;10239;56.820;24.416;2023-03-01T08:45:02;15.00;99.90
20158;DHT22;10239;56.820;24.416;2023-03-01T08:47:44;15.60;99.90
20158;DHT22;10239;56.820;24.416;2023-03-01T08:50:20;15.60;99.90
20158;DHT22;10239;56.820;24.416;2023-03-01T08:52:52;16.20;99.90
20158;DHT22;10239;56.820;24.416;2023-03-01T08:55:23;16.30;99.90
20158;DHT22;10239;56.820;24.416;2023-03-01T08:58:10;16.20;99.90
20158;DHT22;10239;56.820;24.416;2023-03-01T09:00:53;16.50;99.90
20158;DHT22;10239;56.820;24.416;2023-03-01T09:03:45;16.60;99.90
20158;DHT22;10239;56.820;24.416;2023-03-01T09:06:40;16.40;99.90
20158;DHT22;10239;56.820;24.416;2023-03-01T09:09:30;15.80;99.90
20158;DHT22;10239;56.820;24.416;2023-03-01T09:12:06;15.80;99.90
20158;DHT22;10239;56.820;24.416;2023-03-01T09:15:11;15.80;99.90
20158;DHT22;10239;56.820;24.416;2023-03-01T09:17:43;15.80;99.90
20158;DHT22;10239;56.820;24.416;2023-03-01T09:20:25;15.80;99.90
20158;DHT22;10239;56.820;24.416;2023-03-01T09:22:59;15.50;99.90
20158;DHT22;10239;56.820;24.416;2023-03-01T09:25:27;15.20;99.90
20158;DHT22;10239;56.820;24.416;2023-03-01T09:28:01;15.20;99.90
20158;DHT22;10239;56.820;24.416;2023-03-01T09:34:18;16.00;99.90
20158;DHT22;10239;56.820;24.416;2023-03-01T09:36:50;16.00;99.90
20158;DHT22;10239;56.820;24.416;2023-03-01T09:39:22;16.00;99.90
20158;DHT22;10239;56.820;24.416;2023-03-01T09:45:53;15.90;99.90
20158;DHT22;10239;56.820;24.416;2023-03-01T09:49:31;16.00;99.90
20158;DHT22;10239;56.820;24.416;2023-03-01T09:52:23;15.80;99.90
20158;DHT22;10239;56.820;24.416;2023-03-01T09:55:13;15.60;99.90
20158;DHT22;10239;56.820;24.416;2023-03-01T09:57:55;15.80;99.90
20158;DHT22;10239;56.820;24.416;2023-03-01T10:00:47;15.80;99.90
20158;DHT22;10239;56.820;24.416;2023-03-01T10:03:44;15.70;99.90
20158;DHT22;10239;56.820;24.416;2023-03-01T10:06:27;15.50;99.90
20158;DHT22;10239;56.820;24.416;2023-03-01T10:09:14;15.50;99.90
20158;DHT22;10239;56.820;24.416;2023-03-01T10:11:50;15.50;99.30
20158;DHT22;10239;56.820;24.416;2023-03-01T10:14:44;15.30;99.30
20158;DHT22;10239;56.820;24.416;2023-03-01T10:18:12;15.20;99.60
20158;DHT22;10239;56.820;24.416;2023-03-01T10:21:18;15.00;99.90
20158;DHT22;10239;56.820;24.416;2023-03-01T10:23:50;14.70;99.90
20158;DHT22;10239;56.820;24.416;2023-03-01T10:31:46;14.40;99.90
20158;DHT22;10239;56.820;24.416;2023-03-01T10:34:25;14.20;99.60
20158;DHT22;10239;56.820;24.416;2023-03-01T10:37:18;14.20;99.90
20158;DHT22;10239;56.820;24.416;2023-03-01T10:43:10;14.40;99.10
20158;DHT22;10239;56.820;24.416;2023-03-01T10:46:36;14.20;97.70
20158;DHT22;10239;56.820;24.416;2023-03-01T10:49:22;14.10;97.90
20158;DHT22;10239;56.820;24.416;2023-03-01T10:51:53;13.70;96.20
20158;DHT22;10239;56.820;24.416;2023-03-01T10:54:30;13.70;96.40
20158;DHT22;10239;56.820;24.416;2023-03-01T10:57:00;13.30;96.20
20158;DHT22;10239;56.820;24.416;2023-03-01T10:59:37;13.00;95.30
20158;DHT22;10239;56.820;24.416;2023-03-01T11:02:18;12.60;96.20
20158;DHT22;10239;56.820;24.416;2023-03-01T11:05:00;12.60;96.40
20158;DHT22;10239;56.820;24.416;2023-03-01T11:07:31;12.30;97.40
20158;DHT22;10239;56.820;24.416;2023-03-01T11:10:29;12.10;98.80
20158;DHT22;10239;56.820;24.416;2023-03-01T11:13:23;12.10;99.90
20158;DHT22;10239;56.820;24.416;2023-03-01T11:16:10;12.10;99.40
20158;DHT22;10239;56.820;24.416;2023-03-01T11:18:39;12.00;99.40
20158;DHT22;10239;56.820;24.416;2023-03-01T11:21:16;11.80;98.70
20158;DHT22;10239;56.820;24.416;2023-03-01T11:23:46;11.40;99.70
20158;DHT22;10239;56.820;24.416;2023-03-01T11:26:15;11.40;99.60
20158;DHT22;10239;56.820;24.416;2023-03-01T11:28:49;11.30;99.80
20158;DHT22;10239;56.820;24.416;2023-03-01T11:31:20;11.10;99.30
20158;DHT22;10239;56.820;24.416;2023-03-01T11:36:32;11.00;99.90
20158;DHT22;10239;56.820;24.416;2023-03-01T11:39:10;10.80;99.90
20158;DHT22;10239;56.820;24.416;2023-03-01T11:41:42;10.70;99.90
20158;DHT22;10239;56.820;24.416;2023-03-01T11:44:18;10.70;99.90
20158;DHT22;10239;56.820;24.416;2023-03-01T12:01:58;9.90;99.90
20158;DHT22;10239;56.820;24.416;2023-03-01T12:07:16;9.10;99.90
20158;DHT22;10239;56.820;24.416;2023-03-01T12:18:25;9.00;99.90
20158;DHT22;10239;56.820;24.416;2023-03-01T12:30:35;8.50;99.90
20158;DHT22;10239;56.820;24.416;2023-03-01T12:38:56;8.10;99.90
20158;DHT22;10239;56.820;24.416;2023-03-01T12:41:57;8.20;99.90
20158;DHT22;10239;56.820;24.416;2023-03-01T12:47:45;8.10;99.90
20158;DHT22;10239;56.820;24.416;2023-03-01T12:50:41;8.00;99.90
20158;DHT22;10239;56.820;24.416;2023-03-01T12:53:23;7.90;99.90
20158;DHT22;10239;56.820;24.416;2023-03-01T12:56:02;7.90;99.90
20158;DHT22;10239;56.820;24.416;2023-03-01T13:01:46;7.70;99.90
20158;DHT22;10239;56.820;24.416;2023-03-01T13:07:17;7.70;99.90
20158;DHT22;10239;56.820;24.416;2023-03-01T13:12:51;7.60;99.90
20158;DHT22;10239;56.820;24.416;2023-03-01T13:17:54;7.60;99.90
20158;DHT22;10239;56.820;24.416;2023-03-01T13:23:12;7.40;99.90
20158;DHT22;10239;56.820;24.416;2023-03-01T13:26:01;7.30;99.90
20158;DHT22;10239;56.820;24.416;2023-03-01T13:31:05;7.30;99.90
20158;DHT22;10239;56.820;24.416;2023-03-01T13:33:47;7.30;99.90
20158;DHT22;10239;56.820;24.416;2023-03-01T13:39:02;7.30;99.90
20158;DHT22;10239;56.820;24.416;2023-03-01T13:44:32;7.30;99.90
20158;DHT22;10239;56.820;24.416;2023-03-01T13:49:48;7.20;99.90
20158;DHT22;10239;56.820;24.416;2023-03-01T13:52:39;7.10;99.90
20158;DHT22;10239;56.820;24.416;2023-03-01T13:57:45;7.00;99.90
20158;DHT22;10239;56.820;24.416;2023-03-01T14:00:36;7.10;99.90
20158;DHT22;10239;56.820;24.416;2023-03-01T14:03:17;7.00;99.90
20158;DHT22;10239;56.820;24.416;2023-03-01T14:08:45;7.00;99.90
20158;DHT22;10239;56.820;24.416;2023-03-01T14:14:32;6.90;99.90
20158;DHT22;10239;56.820;24.416;2023-03-01T14:19:37;6.90;99.90
20158;DHT22;10239;56.820;24.416;2023-03-01T14:22:16;6.90;99.90
20158;DHT22;10239;56.820;24.416;2023-03-01T14:24:58;6.80;99.90
20158;DHT22;10239;56.820;24.416;2023-03-01T14:27:36;6.70;99.90
20158;DHT22;10239;56.820;24.416;2023-03-01T14:30:27;6.70;99.90
20158;DHT22;10239;56.820;24.416;2023-03-01T14:32:59;6.60;99.90
20158;DHT22;10239;56.820;24.416;2023-03-01T14:35:37;6.50;99.90
20158;DHT22;10239;56.820;24.416;2023-03-01T14:38:39;6.50;99.90
20158;DHT22;10239;56.820;24.416;2023-03-01T14:41:24;6.40;99.90
20158;DHT22;10239;56.820;24.416;2023-03-01T14:44:23;6.30;99.90
20158;DHT22;10239;56.820;24.416;2023-03-01T14:47:14;6.30;99.90
20158;DHT22;10239;56.820;24.416;2023-03-01T14:50:34;6.20;99.90
20158;DHT22;10239;56.820;24.416;2023-03-01T14:53:42;6.20;99.90
20158;DHT22;10239;56.820;24.416;2023-03-01T14:56:22;6.10;99.90
20158;DHT22;10239;56.820;24.416;2023-03-01T14:59:14;6.00;99.90
20158;DHT22;10239;56.820;24.416;2023-03-01T15:01:55;5.90;99.90
20158;DHT22;10239;56.820;24.416;2023-03-01T15:04:38;5.80;99.90
20158;DHT22;10239;56.820;24.416;2023-03-01T15:07:19;5.70;99.90
20158;DHT22;10239;56.820;24.416;2023-03-01T15:09:52;5.60;99.90
20158;DHT22;10239;56.820;24.416;2023-03-01T15:22:28;5.30;99.90
20158;DHT22;10239;56.820;24.416;2023-03-01T15:25:02;5.10;99.90
20158;DHT22;10239;56.820;24.416;2023-03-01T15:27:36;5.00;99.90
20158;DHT22;10239;56.820;24.416;2023-03-01T15:33:27;4.90;99.90
20158;DHT22;10239;56.820;24.416;2023-03-01T15:36:00;4.80;99.90
20158;DHT22;10239;56.820;24.416;2023-03-01T15:41:25;4.80;99.90
20158;DHT22;10239;56.820;24.416;2023-03-01T15:44:26;5.00;99.90
20158;DHT22;10239;56.820;24.416;2023-03-01T15:47:31;4.80;99.90
20158;DHT22;10239;56.820;24.416;2023-03-01T15:50:04;4.80;99.90
20158;DHT22;10239;56.820;24.416;2023-03-01T15:52:53;5.00;99.90
20158;DHT22;10239;56.820;24.416;2023-03-01T15:55:29;4.70;99.90
20158;DHT22;10239;56.820;24.416;2023-03-01T16:09:16;5.30;99.90
20158;DHT22;10239;56.820;24.416;2023-03-01T16:12:18;5.20;99.90
20158;DHT22;10239;56.820;24.416;2023-03-01T16:28:16;5.40;99.90
20158;DHT22;10239;56.820;24.416;2023-03-01T16:31:22;5.20;99.90
20158;DHT22;10239;56.820;24.416;2023-03-01T16:34:33;5.10;99.90
20158;DHT22;10239;56.820;24.416;2023-03-01T17:07:20;4.70;99.90
20158;DHT22;10239;56.820;24.416;2023-03-01T17:10:34;4.50;99.90
20158;DHT22;10239;56.820;24.416;2023-03-01T17:13:41;4.40;99.90
20158;DHT22;10239;56.820;24.416;2023-03-01T17:21:16;4.10;99.90
20158;DHT22;10239;56.820;24.416;2023-03-01T17:27:55;3.80;99.90
20158;DHT22;10239;56.820;24.416;2023-03-01T17:31:02;3.40;99.90
20158;DHT22;10239;56.820;24.416;2023-03-01T17:34:17;3.30;99.90
20158;DHT22;10239;56.820;24.416;2023-03-01T17:37:23;3.00;99.90
20158;DHT22;10239;56.820;24.416;2023-03-01T18:12:18;2.20;99.90
20158;DHT22;10239;56.820;24.416;2023-03-01T18:14:58;2.20;99.90
20158;DHT22;10239;56.820;24.416;2023-03-01T18:21:16;2.10;99.90
20158;DHT22;10239;56.820;24.416;2023-03-01T18:27:44;2.00;99.90
20158;DHT22;10239;56.820;24.416;2023-03-01T18:34:02;2.00;99.90
20158;DHT22;10239;56.820;24.416;2023-03-01T18:54:29;1.90;99.90
20158;DHT22;10239;56.820;24.416;2023-03-01T18:57:19;1.90;99.90
20158;DHT22;10239;56.820;24.416;2023-03-01T19:08:54;2.30;99.90
20158;DHT22;10239;56.820;24.416;2023-03-01T19:11:42;2.50;99.90
20158;DHT22;10239;56.820;24.416;2023-03-01T19:14:17;2.50;99.90
20158;DHT22;10239;56.820;24.416;2023-03-01T19:16:46;2.60;99.90
20158;DHT22;10239;56.820;24.416;2023-03-01T19:22:12;2.80;99.90
20158;DHT22;10239;56.820;24.416;2023-03-01T19:25:12;2.80;99.90
20158;DHT22;10239;56.820;24.416;2023-03-01T19:27:59;2.80;99.90
20158;DHT22;10239;56.820;24.416;2023-03-01T19:31:08;2.80;99.90
20158;DHT22;10239;56.820;24.416;2023-03-01T19:34:21;2.90;99.90
20158;DHT22;10239;56.820;24.416;2023-03-01T19:37:05;2.80;99.90
20158;DHT22;10239;56.820;24.416;2023-03-01T19:39:34;2.80;99.90
20158;DHT22;10239;56.820;24.416;2023-03-01T19:42:04;2.80;99.90
20158;DHT22;10239;56.820;24.416;2023-03-01T19:44:32;2.70;99.90
20158;DHT22;10239;56.820;24.416;2023-03-01T20:01:01;2.50;99.90
20158;DHT22;10239;56.820;24.416;2023-03-01T20:07:10;2.60;99.90
20158;DHT22;10239;56.820;24.416;2023-03-01T20:44:02;2.40;99.90
20158;DHT22;10239;56.820;24.416;2023-03-01T21:59:54;2.60;99.90
20158;DHT22;10239;56.820;24.416;2023-03-01T22:13:25;2.70;99.90
20158;DHT22;10239;56.820;24.416;2023-03-01T22:36:31;3.00;99.90
20158;DHT22;10239;56.820;24.416;2023-03-01T22:39:48;3.10;99.90
20158;DHT22;10239;56.820;24.416;2023-03-01T22:59:40;3.20;99.90
20158;DHT22;10239;56.820;24.416;2023-03-01T23:46:50;3.30;99.90
